Terminal Aerodrome Forecast
Issued by NWS

Home | Current Version | Previous Version | Text Only | Print | Product List | Glossary On
Versions: 1 2 3 4 5 6 7 8 9 10 11 12
000
FTUS46 KSEW 052300
TAFBLI
TAF
KBLI 052320Z 0600/0624 16010KT P6SM VCSH SCT025 BKN050
     FM060600 VRB03KT P6SM BKN025 BKN050
     FM061800 29005KT P6SM SCT050=

USA.gov is the U.S. government's official web portal to all federal, state and local government web resources and services.